Time;durP1;ratioP1;P1;durP2;ratioP2;P2;SDS_P1;SDS_P2;PMS_P1;PMS_P2;Temp;Humidity;BMP_temperature;BMP_pressure;BME280_temperature;BME280_humidity;BME280_pressure;Samples;Min_cycle;Max_cycle;Signal;HPM_P1;HPM_P2
2023/12/03 00:01:07;;;;;;;38.03;13.77;;;0.50;99.90;;;;;;4929932;28;20222;-64
2023/12/03 00:03:35;;;;;;;39.07;14.67;;;0.40;99.90;;;;;;4923239;28;20562;-65
2023/12/03 00:06:02;;;;;;;38.63;14.40;;;-0.20;99.90;;;;;;4942419;28;20219;-64
2023/12/03 00:08:29;;;;;;;33.53;13.50;;;0.80;99.90;;;;;;4926314;28;20203;-64
2023/12/03 00:10:56;;;;;;;43.70;15.77;;;0.50;99.90;;;;;;4940847;28;20244;-64
2023/12/03 00:13:23;;;;;;;33.47;14.37;;;0.80;99.90;;;;;;4902739;28;21909;-64
2023/12/03 00:15:50;;;;;;;35.50;15.87;;;0.50;99.90;;;;;;4936697;28;20219;-64
2023/12/03 00:18:17;;;;;;;35.20;15.17;;;0.40;99.90;;;;;;4927530;28;20693;-64
2023/12/03 00:20:45;;;;;;;32.07;15.37;;;0.40;99.90;;;;;;4930111;28;20825;-64
2023/12/03 00:23:12;;;;;;;35.10;14.87;;;0.40;99.90;;;;;;4923660;28;20326;-64
2023/12/03 00:25:38;;;;;;;37.10;15.50;;;0.50;99.90;;;;;;4935035;28;20327;-64
2023/12/03 00:28:05;;;;;;;32.43;15.60;;;0.40;99.90;;;;;;4927676;28;20212;-64
2023/12/03 00:30:32;;;;;;;37.87;15.97;;;0.50;99.90;;;;;;4897082;28;20260;-64
2023/12/03 00:32:59;;;;;;;37.50;15.57;;;1.10;99.90;;;;;;4926710;28;20776;-64
2023/12/03 00:35:26;;;;;;;33.20;14.97;;;0.50;99.90;;;;;;4926351;28;20436;-64
2023/12/03 00:37:54;;;;;;;32.13;14.50;;;-0.70;99.90;;;;;;4937877;28;20212;-64
2023/12/03 00:40:21;;;;;;;33.43;14.93;;;0.50;99.90;;;;;;4930091;28;20213;-64
2023/12/03 00:42:49;;;;;;;37.83;14.67;;;;;;;;;;4931535;28;20232;-64
2023/12/03 00:45:16;;;;;;;41.77;14.50;;;0.60;99.90;;;;;;4890924;28;20221;-64
2023/12/03 00:47:42;;;;;;;27.00;13.77;;;0.50;99.90;;;;;;4931042;28;20728;-65
2023/12/03 00:50:10;;;;;;;32.07;13.60;;;0.50;99.90;;;;;;4917977;28;20228;-64
2023/12/03 00:52:36;;;;;;;34.73;14.30;;;0.40;99.90;;;;;;4931964;28;21280;-64
2023/12/03 00:55:05;;;;;;;34.70;14.23;;;-0.40;99.90;;;;;;4928432;28;20213;-64
2023/12/03 00:57:32;;;;;;;29.27;13.23;;;0.50;99.90;;;;;;4932827;28;20221;-65
2023/12/03 00:59:59;;;;;;;28.27;14.03;;;0.50;99.90;;;;;;4904145;28;20213;-64
2023/12/03 01:02:26;;;;;;;32.47;14.67;;;0.50;99.90;;;;;;4933079;28;20729;-64
2023/12/03 01:04:53;;;;;;;25.43;13.03;;;0.60;99.90;;;;;;4918351;28;20210;-65
2023/12/03 01:07:19;;;;;;;31.77;13.67;;;0.40;99.90;;;;;;4933523;28;20710;-64
2023/12/03 01:09:46;;;;;;;33.60;14.23;;;0.50;99.90;;;;;;4939605;28;20245;-64
2023/12/03 01:12:15;;;;;;;30.03;13.13;;;0.50;99.90;;;;;;4925029;28;20210;-64
2023/12/03 01:14:41;;;;;;;31.33;13.23;;;1.00;99.90;;;;;;4934484;28;20202;-64
2023/12/03 01:17:08;;;;;;;32.43;13.53;;;1.20;99.90;;;;;;4889172;28;20212;-64
2023/12/03 01:19:35;;;;;;;30.23;13.07;;;0.50;99.90;;;;;;4926655;28;20206;-64
2023/12/03 01:22:02;;;;;;;29.23;12.90;;;0.50;99.90;;;;;;4919021;28;20210;-64
2023/12/03 01:24:29;;;;;;;29.37;12.63;;;0.60;99.90;;;;;;4935683;28;20217;-64
2023/12/03 01:26:56;;;;;;;27.17;13.23;;;0.50;99.90;;;;;;4922115;28;20213;-65
2023/12/03 01:29:24;;;;;;;34.27;13.50;;;0.60;99.90;;;;;;4937240;28;20608;-64
2023/12/03 01:31:51;;;;;;;32.00;13.90;;;0.50;99.90;;;;;;4896749;28;20699;-64
2023/12/03 01:34:18;;;;;;;28.20;12.83;;;0.40;99.90;;;;;;4932314;28;20917;-64
2023/12/03 01:36:45;;;;;;;31.93;13.40;;;0.50;99.90;;;;;;4926371;28;20234;-64
2023/12/03 01:39:12;;;;;;;34.97;13.77;;;0.50;99.90;;;;;;4928619;28;20204;-64
2023/12/03 01:41:39;;;;;;;31.77;14.10;;;;;;;;;;4929415;28;20208;-65
2023/12/03 01:44:06;;;;;;;27.20;13.03;;;0.50;99.90;;;;;;4937471;28;20208;-64
2023/12/03 01:46:35;;;;;;;31.63;14.37;;;0.50;99.90;;;;;;4903913;28;21087;-64
2023/12/03 01:49:02;;;;;;;27.43;12.47;;;0.80;99.90;;;;;;4939890;28;20211;-64
2023/12/03 01:51:29;;;;;;;30.23;13.47;;;0.60;99.90;;;;;;4923178;28;20681;-64
2023/12/03 01:53:56;;;;;;;26.30;13.50;;;0.50;99.90;;;;;;4930492;28;20207;-64
2023/12/03 01:56:23;;;;;;;29.80;14.10;;;0.60;99.90;;;;;;4922332;28;20247;-64
2023/12/03 01:58:51;;;;;;;29.33;13.90;;;0.50;99.90;;;;;;4938830;28;20194;-64
2023/12/03 02:01:18;;;;;;;27.57;13.43;;;0.60;99.90;;;;;;4911125;28;20325;-65
2023/12/03 02:03:46;;;;;;;28.10;13.00;;;1.60;99.90;;;;;;4939076;28;20214;-64
2023/12/03 02:06:13;;;;;;;30.87;13.47;;;0.50;99.90;;;;;;4936641;28;20239;-64
2023/12/03 02:08:40;;;;;;;30.93;13.57;;;0.60;99.90;;;;;;4924880;28;20341;-64
2023/12/03 02:11:08;;;;;;;30.70;12.80;;;0.60;99.90;;;;;;4935611;28;20227;-64
2023/12/03 02:13:37;;;;;;;34.53;13.03;;;0.60;99.90;;;;;;4931631;28;20222;-64
2023/12/03 02:16:05;;;;;;;30.07;14.30;;;0.60;99.90;;;;;;4938902;28;20201;-64
2023/12/03 02:18:33;;;;;;;28.10;14.23;;;1.20;99.90;;;;;;4900464;28;20314;-64
2023/12/03 02:21:02;;;;;;;25.83;12.83;;;0.60;99.90;;;;;;4943260;28;20235;-64
2023/12/03 02:23:31;;;;;;;30.63;13.33;;;1.50;99.90;;;;;;4918619;28;20687;-64
2023/12/03 02:25:58;;;;;;;27.97;13.07;;;0.60;99.90;;;;;;4945110;28;20229;-64
2023/12/03 02:28:25;;;;;;;30.40;13.67;;;0.60;99.90;;;;;;4933961;28;20202;-64
2023/12/03 02:30:52;;;;;;;27.93;14.07;;;0.70;99.90;;;;;;4945622;28;20328;-64
2023/12/03 02:33:19;;;;;;;33.50;13.50;;;0.60;99.90;;;;;;4913079;28;20293;-64
2023/12/03 02:35:46;;;;;;;31.40;14.07;;;0.60;99.90;;;;;;4946154;28;20242;-65
2023/12/03 02:38:13;;;;;;;28.90;13.93;;;0.50;99.90;;;;;;4936774;28;20214;-64
2023/12/03 02:40:41;;;;;;;32.23;15.33;;;0.60;99.90;;;;;;4938301;28;20470;-64
2023/12/03 02:43:08;;;;;;;27.80;13.70;;;0.60;99.90;;;;;;4940436;28;20558;-64
2023/12/03 02:45:35;;;;;;;29.97;14.30;;;0.70;99.90;;;;;;4933259;28;20214;-64
2023/12/03 02:48:02;;;;;;;28.83;13.80;;;0.50;99.90;;;;;;4939940;28;20206;-65
2023/12/03 02:50:29;;;;;;;25.07;12.60;;;0.60;99.90;;;;;;4905235;28;20274;-64
2023/12/03 02:52:56;;;;;;;28.00;13.47;;;0.70;99.90;;;;;;4944052;28;20217;-64
2023/12/03 02:55:23;;;;;;;26.53;12.67;;;0.80;99.90;;;;;;4925859;28;20205;-64
2023/12/03 02:57:51;;;;;;;30.63;14.10;;;0.70;99.90;;;;;;4940765;28;20291;-64
2023/12/03 03:00:18;;;;;;;27.77;13.20;;;0.70;99.90;;;;;;4929196;28;20242;-64
2023/12/03 03:02:45;;;;;;;29.00;14.00;;;0.70;99.90;;;;;;4939802;28;20358;-64
2023/12/03 03:05:12;;;;;;;27.90;13.17;;;0.70;99.90;;;;;;4906132;28;20221;-64
2023/12/03 03:07:39;;;;;;;29.17;15.13;;;0.60;99.90;;;;;;4942323;28;20884;-64
2023/12/03 03:10:07;;;;;;;30.13;13.73;;;0.70;99.90;;;;;;4941194;28;20615;-64
2023/12/03 03:12:34;;;;;;;25.73;13.60;;;0.60;99.90;;;;;;4933236;28;21078;-64
2023/12/03 03:15:02;;;;;;;30.90;14.70;;;0.50;99.90;;;;;;4939613;28;20693;-65
2023/12/03 03:17:29;;;;;;;24.77;13.07;;;0.50;99.90;;;;;;4929759;28;20585;-64
2023/12/03 03:19:56;;;;;;;31.87;14.47;;;0.50;99.90;;;;;;4904914;28;20223;-65
2023/12/03 03:22:23;;;;;;;30.73;14.30;;;0.40;99.90;;;;;;4935100;28;20233;-64
2023/12/03 03:24:52;;;;;;;31.03;14.63;;;0.60;99.90;;;;;;4935967;28;20206;-64
2023/12/03 03:27:19;;;;;;;26.90;13.30;;;0.30;99.90;;;;;;4923690;28;20205;-64
2023/12/03 03:29:46;;;;;;;29.37;13.17;;;0.30;99.90;;;;;;4938952;28;20203;-64
2023/12/03 03:32:14;;;;;;;26.80;11.67;;;0.40;99.90;;;;;;4926653;28;20215;-64
2023/12/03 03:34:41;;;;;;;30.57;13.60;;;0.30;99.90;;;;;;4903081;28;22077;-64
2023/12/03 03:37:08;;;;;;;30.57;13.97;;;-0.70;99.90;;;;;;4940112;28;20633;-64
2023/12/03 03:39:35;;;;;;;28.10;13.17;;;0.10;99.90;;;;;;4937954;28;20406;-64
2023/12/03 03:42:03;;;;;;;28.83;13.97;;;0.30;99.90;;;;;;4942418;28;20213;-64
2023/12/03 03:44:30;;;;;;;26.00;12.40;;;0.40;99.90;;;;;;4927883;28;20233;-65
2023/12/03 03:46:56;;;;;;;30.97;13.57;;;0.40;99.90;;;;;;4927847;28;21020;-64
2023/12/03 03:49:25;;;;;;;30.67;13.30;;;0.30;99.90;;;;;;4936630;28;20217;-64
2023/12/03 03:51:51;;;;;;;27.50;12.53;;;0.30;99.90;;;;;;4909404;28;20752;-64
2023/12/03 03:54:18;;;;;;;32.10;13.07;;;0.30;99.90;;;;;;4936925;28;20203;-64
2023/12/03 03:56:47;;;;;;;28.07;12.97;;;0.30;99.90;;;;;;4936527;28;20726;-64
2023/12/03 03:59:16;;;;;;;31.83;13.83;;;0.30;99.90;;;;;;4922659;28;20205;-64
2023/12/03 04:01:44;;;;;;;32.30;13.43;;;0.30;99.90;;;;;;4941406;28;20851;-64
2023/12/03 04:04:11;;;;;;;36.57;13.50;;;1.10;99.90;;;;;;4929313;28;20683;-64
2023/12/03 04:06:40;;;;;;;33.03;13.93;;;0.10;99.90;;;;;;4904895;28;20234;-64
2023/12/03 04:09:08;;;;;;;30.17;13.60;;;0.40;99.90;;;;;;4943850;28;20205;-64
2023/12/03 04:11:39;;;;;;;34.90;12.97;;;0.40;99.90;;;;;;4942690;28;20441;-64
2023/12/03 04:14:07;;;;;;;40.27;14.57;;;0.30;99.90;;;;;;4934515;28;20203;-64
2023/12/03 04:16:33;;;;;;;30.20;12.90;;;0.50;99.90;;;;;;4939242;28;20886;-65
2023/12/03 04:19:00;;;;;;;31.47;13.23;;;0.30;99.90;;;;;;4935311;28;20213;-64
2023/12/03 04:21:27;;;;;;;25.23;13.73;;;0.40;99.90;;;;;;4907353;28;20888;-64
2023/12/03 04:23:56;;;;;;;31.50;13.47;;;0.40;99.90;;;;;;4943982;28;20197;-64
2023/12/03 04:26:24;;;;;;;36.30;14.43;;;;;;;;;;4940064;28;20296;-64
2023/12/03 04:28:52;;;;;;;27.00;12.17;;;0.50;99.90;;;;;;4934426;28;20204;-64
2023/12/03 04:31:21;;;;;;;34.87;13.57;;;0.40;99.90;;;;;;4940363;28;20230;-64
2023/12/03 04:33:49;;;;;;;29.30;12.93;;;;;;;;;;4933504;28;20821;-64
2023/12/03 04:36:16;;;;;;;29.43;13.63;;;0.50;99.90;;;;;;4944941;28;20238;-64
2023/12/03 04:38:43;;;;;;;34.23;13.17;;;0.40;99.90;;;;;;4907517;28;20681;-64
2023/12/03 04:41:11;;;;;;;32.40;14.70;;;0.40;99.90;;;;;;4941616;28;20202;-64
2023/12/03 04:43:38;;;;;;;32.57;12.03;;;;;;;;;;4931817;28;20744;-64
2023/12/03 04:46:07;;;;;;;33.07;12.80;;;0.50;99.90;;;;;;4937635;28;20325;-64
2023/12/03 04:48:34;;;;;;;28.77;13.87;;;0.50;99.90;;;;;;4920820;28;20225;-64
2023/12/03 04:51:01;;;;;;;28.97;12.77;;;0.40;99.90;;;;;;4942220;28;20231;-65
2023/12/03 04:53:29;;;;;;;33.37;12.67;;;0.80;99.90;;;;;;4900737;28;20223;-64
2023/12/03 04:55:56;;;;;;;41.33;14.90;;;0.50;99.90;;;;;;4938647;28;20848;-64
2023/12/03 04:58:25;;;;;;;34.07;13.77;;;0.50;99.90;;;;;;4941416;28;20203;-64
2023/12/03 05:00:52;;;;;;;35.40;13.67;;;0.00;99.90;;;;;;4921927;28;20397;-64
2023/12/03 05:03:20;;;;;;;35.63;13.50;;;0.50;99.90;;;;;;4938600;28;20205;-65
2023/12/03 05:05:47;;;;;;;27.00;11.57;;;0.40;99.90;;;;;;4926703;28;20226;-64
2023/12/03 05:08:14;;;;;;;30.73;13.70;;;0.40;99.90;;;;;;4899656;28;20222;-64
2023/12/03 05:10:41;;;;;;;36.13;13.83;;;0.40;99.90;;;;;;4936713;28;20237;-64
2023/12/03 05:13:07;;;;;;;36.77;15.57;;;1.00;99.90;;;;;;4938322;28;20206;-64
2023/12/03 05:15:36;;;;;;;36.17;15.17;;;0.40;99.90;;;;;;4931778;28;20318;-64
2023/12/03 05:18:03;;;;;;;33.77;14.40;;;0.50;99.90;;;;;;4940166;28;20562;-64
2023/12/03 05:20:30;;;;;;;39.40;14.60;;;0.50;99.90;;;;;;4933713;28;20203;-64
2023/12/03 05:22:57;;;;;;;35.30;14.43;;;0.40;99.90;;;;;;4939528;28;20405;-64
2023/12/03 05:25:24;;;;;;;40.93;13.97;;;0.50;99.90;;;;;;4902206;28;20225;-64
2023/12/03 05:27:51;;;;;;;41.13;14.30;;;0.60;99.90;;;;;;4937648;28;20208;-64
2023/12/03 05:30:18;;;;;;;36.80;14.43;;;0.60;99.90;;;;;;4926677;28;24761;-64
2023/12/03 05:32:47;;;;;;;35.03;13.53;;;0.60;99.90;;;;;;4925343;28;20779;-64
2023/12/03 05:35:13;;;;;;;33.53;13.80;;;0.50;99.90;;;;;;4926289;28;20603;-64
2023/12/03 05:37:41;;;;;;;47.37;14.37;;;;;;;;;;4935458;28;20204;-64
2023/12/03 05:40:09;;;;;;;39.57;13.83;;;0.60;99.90;;;;;;4906355;28;20218;-64
2023/12/03 05:42:36;;;;;;;36.40;13.30;;;0.70;99.90;;;;;;4940327;28;20727;-64
2023/12/03 05:45:04;;;;;;;35.23;13.83;;;0.70;99.90;;;;;;4937809;28;20735;-64
2023/12/03 05:47:31;;;;;;;34.60;12.93;;;1.70;99.90;;;;;;4933761;28;20580;-64
2023/12/03 05:50:00;;;;;;;41.87;13.33;;;0.70;99.90;;;;;;4943815;28;20199;-64
2023/12/03 05:52:28;;;;;;;30.43;13.20;;;0.70;99.90;;;;;;4935424;28;20234;-64
2023/12/03 05:54:55;;;;;;;37.60;14.10;;;0.60;99.90;;;;;;4898088;28;22751;-64
2023/12/03 05:57:22;;;;;;;36.10;14.03;;;0.70;99.90;;;;;;4938694;28;20293;-64
2023/12/03 05:59:49;;;;;;;26.43;12.50;;;0.60;99.90;;;;;;4942350;28;20299;-64
2023/12/03 06:02:16;;;;;;;32.70;13.33;;;0.50;99.90;;;;;;4937068;28;20211;-64
2023/12/03 06:04:43;;;;;;;40.43;13.80;;;0.50;99.90;;;;;;4945176;28;20427;-64
2023/12/03 06:07:12;;;;;;;34.93;13.13;;;0.60;99.90;;;;;;4935519;28;20225;-65
2023/12/03 06:09:39;;;;;;;35.80;13.70;;;0.50;99.90;;;;;;4913621;28;20204;-64
2023/12/03 06:12:07;;;;;;;36.63;14.30;;;0.50;99.90;;;;;;4945265;28;20249;-64
2023/12/03 06:14:33;;;;;;;32.80;13.40;;;0.60;99.90;;;;;;4947379;28;20194;-64
2023/12/03 06:17:01;;;;;;;33.80;12.67;;;0.50;99.90;;;;;;4945915;28;20558;-64
2023/12/03 06:19:28;;;;;;;38.63;14.73;;;0.50;99.90;;;;;;4938477;28;20704;-64
2023/12/03 06:21:55;;;;;;;32.77;13.73;;;0.60;99.90;;;;;;4936440;28;20220;-64
2023/12/03 06:24:25;;;;;;;31.07;14.33;;;0.60;99.90;;;;;;4945369;28;20207;-64
2023/12/03 06:26:51;;;;;;;31.47;13.27;;;0.50;99.90;;;;;;4897119;28;20784;-64
2023/12/03 06:29:19;;;;;;;31.53;14.20;;;0.70;99.90;;;;;;4942695;28;20760;-64
2023/12/03 06:31:47;;;;;;;30.83;12.13;;;;;;;;;;4940069;28;20242;-65
2023/12/03 06:34:15;;;;;;;36.60;12.87;;;0.60;99.90;;;;;;4937029;28;20211;-64
2023/12/03 06:36:42;;;;;;;34.03;13.60;;;0.60;99.90;;;;;;4942465;28;20238;-64
2023/12/03 06:39:09;;;;;;;35.27;15.10;;;0.60;99.90;;;;;;4928426;28;20215;-64
2023/12/03 06:41:37;;;;;;;42.30;14.90;;;0.50;99.90;;;;;;4906651;28;20230;-64
2023/12/03 06:44:04;;;;;;;34.87;14.70;;;0.60;99.90;;;;;;4947942;28;20207;-64
2023/12/03 06:46:31;;;;;;;42.03;15.77;;;0.90;99.90;;;;;;4939053;28;20195;-64
2023/12/03 06:48:58;;;;;;;42.83;16.33;;;1.20;99.90;;;;;;4936079;28;20903;-64
2023/12/03 06:51:25;;;;;;;45.60;15.13;;;0.60;99.90;;;;;;4948611;28;20230;-64
2023/12/03 06:53:51;;;;;;;35.67;14.43;;;0.70;99.90;;;;;;4938161;28;20207;-64
2023/12/03 06:56:18;;;;;;;46.80;15.87;;;0.70;99.90;;;;;;4912751;28;20214;-64
2023/12/03 06:58:46;;;;;;;38.50;15.03;;;0.70;99.90;;;;;;4944643;28;20202;-64
2023/12/03 07:01:14;;;;;;;34.60;13.77;;;0.70;99.90;;;;;;4946022;28;20204;-64
2023/12/03 07:03:40;;;;;;;36.80;14.33;;;0.70;99.90;;;;;;4946328;28;20209;-64
2023/12/03 07:06:08;;;;;;;36.53;14.30;;;0.60;99.90;;;;;;4940015;28;20753;-64
2023/12/03 07:08:35;;;;;;;35.57;14.80;;;0.70;99.90;;;;;;4939830;28;20310;-64
2023/12/03 07:11:02;;;;;;;40.77;14.87;;;0.70;99.90;;;;;;4909672;28;21659;-64
2023/12/03 07:13:28;;;;;;;38.00;14.20;;;0.70;99.90;;;;;;4948031;28;20650;-64
2023/12/03 07:15:57;;;;;;;37.60;13.77;;;1.00;99.90;;;;;;4945010;28;21007;-64
2023/12/03 07:18:24;;;;;;;31.20;12.67;;;0.60;99.90;;;;;;4947452;28;20207;-64
2023/12/03 07:20:51;;;;;;;36.27;14.23;;;0.60;99.90;;;;;;4922548;28;20470;-65
2023/12/03 07:23:17;;;;;;;36.80;14.80;;;0.60;99.90;;;;;;4947766;28;20207;-64
2023/12/03 07:25:45;;;;;;;34.27;13.70;;;;;;;;;;4934922;28;20582;-65
2023/12/03 07:28:11;;;;;;;32.37;13.13;;;0.70;99.90;;;;;;4897099;28;20276;-64
2023/12/03 07:30:38;;;;;;;32.37;13.17;;;0.00;99.90;;;;;;4944248;28;20559;-64
2023/12/03 07:33:06;;;;;;;31.30;12.93;;;0.70;99.90;;;;;;4948053;28;20238;-64
2023/12/03 07:35:33;;;;;;;37.27;14.13;;;0.60;99.90;;;;;;4935441;28;25495;-64
2023/12/03 07:38:00;;;;;;;28.33;11.90;;;0.60;99.90;;;;;;4936415;28;20394;-64
2023/12/03 07:40:27;;;;;;;36.63;14.13;;;1.20;99.90;;;;;;4935028;28;20232;-64
2023/12/03 07:42:54;;;;;;;29.50;12.57;;;0.80;99.90;;;;;;4910856;28;20222;-65
2023/12/03 07:45:21;;;;;;;32.50;14.17;;;0.70;99.90;;;;;;4929149;28;20230;-64
2023/12/03 07:47:48;;;;;;;31.47;13.23;;;0.70;99.90;;;;;;4927389;28;20522;-64
2023/12/03 07:50:16;;;;;;;30.70;12.23;;;0.70;99.90;;;;;;4936100;28;20378;-64
2023/12/03 07:52:43;;;;;;;33.83;12.37;;;0.70;99.90;;;;;;4932753;28;20958;-64
2023/12/03 07:55:11;;;;;;;31.00;13.63;;;0.70;99.90;;;;;;4934665;28;21159;-65
2023/12/03 07:57:38;;;;;;;25.90;12.13;;;0.70;99.90;;;;;;4912604;28;20207;-65
2023/12/03 08:00:06;;;;;;;30.87;13.20;;;0.90;99.90;;;;;;4934180;28;20299;-65
2023/12/03 08:02:33;;;;;;;29.90;12.13;;;0.80;99.90;;;;;;4931326;28;20217;-64
2023/12/03 08:05:00;;;;;;;30.60;13.47;;;0.70;99.90;;;;;;4942567;28;20318;-64
2023/12/03 08:07:28;;;;;;;36.87;13.53;;;0.80;99.90;;;;;;4933977;28;20202;-65
2023/12/03 08:09:55;;;;;;;33.20;13.30;;;0.90;99.90;;;;;;4943782;28;20207;-64
2023/12/03 08:12:22;;;;;;;34.10;12.57;;;0.90;99.90;;;;;;4937800;28;20227;-64
2023/12/03 08:14:49;;;;;;;30.83;12.97;;;0.80;99.90;;;;;;4905913;28;20210;-64
2023/12/03 08:17:16;;;;;;;32.57;13.53;;;0.90;99.90;;;;;;4942426;28;20946;-64
2023/12/03 08:19:42;;;;;;;36.80;13.57;;;1.90;99.90;;;;;;4934538;28;20207;-65
2023/12/03 08:22:09;;;;;;;32.47;13.60;;;0.90;99.90;;;;;;4934184;28;20207;-65
2023/12/03 08:24:37;;;;;;;35.17;14.53;;;0.90;99.90;;;;;;4941952;28;20210;-65
2023/12/03 08:27:05;;;;;;;33.70;14.20;;;1.00;99.90;;;;;;4930527;28;20210;-64
2023/12/03 08:29:32;;;;;;;32.30;13.80;;;0.90;99.90;;;;;;4923989;28;20206;-65
2023/12/03 08:31:59;;;;;;;36.77;12.90;;;0.90;99.90;;;;;;4923923;28;20242;-64
2023/12/03 08:34:28;;;;;;;33.10;13.50;;;1.00;99.90;;;;;;4934701;28;21050;-64
2023/12/03 08:36:55;;;;;;;40.63;14.57;;;1.00;99.90;;;;;;4934051;28;20461;-64
2023/12/03 08:39:22;;;;;;;28.40;12.90;;;1.00;99.90;;;;;;4926507;28;20211;-64
2023/12/03 08:41:50;;;;;;;36.27;14.60;;;1.00;99.90;;;;;;4925220;28;20825;-65
2023/12/03 08:44:17;;;;;;;37.93;14.60;;;0.90;99.90;;;;;;4939449;28;20196;-64
2023/12/03 08:46:44;;;;;;;33.43;16.13;;;;;;;;;;4892965;28;20222;-64
2023/12/03 08:49:11;;;;;;;30.23;14.47;;;1.10;99.90;;;;;;4932030;28;20199;-64
2023/12/03 08:51:38;;;;;;;29.77;13.20;;;1.10;99.90;;;;;;4916644;28;20930;-64
2023/12/03 08:54:05;;;;;;;29.10;12.77;;;1.10;99.90;;;;;;4923131;28;20358;-65
2023/12/03 08:56:32;;;;;;;25.63;11.97;;;1.10;99.90;;;;;;4921804;28;20803;-64
2023/12/03 08:59:01;;;;;;;31.13;13.03;;;1.50;99.90;;;;;;4925573;28;20207;-65
2023/12/03 09:01:28;;;;;;;21.90;9.93;;;1.10;99.90;;;;;;4883763;28;20601;-64
2023/12/03 09:03:54;;;;;;;19.77;9.80;;;1.20;99.90;;;;;;4908896;28;20790;-64
2023/12/03 09:06:21;;;;;;;26.57;11.30;;;1.50;99.90;;;;;;4922679;28;20222;-65
2023/12/03 09:08:48;;;;;;;19.80;10.33;;;1.10;99.90;;;;;;4923209;28;20211;-65
2023/12/03 09:11:15;;;;;;;19.73;9.97;;;1.10;99.90;;;;;;4907537;28;20220;-65
2023/12/03 09:13:42;;;;;;;30.77;10.77;;;1.30;99.90;;;;;;4923366;28;21614;-65
2023/12/03 09:16:11;;;;;;;16.30;9.37;;;1.30;99.90;;;;;;4909617;28;20208;-65
2023/12/03 09:18:39;;;;;;;26.13;10.60;;;1.30;99.90;;;;;;4931776;28;20821;-65
2023/12/03 09:21:07;;;;;;;21.80;10.57;;;1.40;99.90;;;;;;4908662;28;22132;-65
2023/12/03 09:23:35;;;;;;;23.67;10.17;;;1.30;99.90;;;;;;4913600;28;20203;-65
2023/12/03 09:26:02;;;;;;;24.17;10.37;;;1.30;99.90;;;;;;4910897;28;20211;-65
2023/12/03 09:28:30;;;;;;;27.90;11.33;;;1.20;99.90;;;;;;4919333;28;20380;-65
2023/12/03 09:30:58;;;;;;;23.13;10.43;;;1.20;99.90;;;;;;4914346;28;20257;-65
2023/12/03 09:33:28;;;;;;;20.77;10.03;;;1.20;99.90;;;;;;4899864;28;20235;-65
2023/12/03 09:35:56;;;;;;;25.20;11.83;;;1.20;99.90;;;;;;4938824;28;20756;-64
2023/12/03 09:38:23;;;;;;;24.63;11.50;;;1.20;99.90;;;;;;4921457;28;20442;-65
2023/12/03 09:40:53;;;;;;;19.53;10.43;;;1.20;99.90;;;;;;4928774;28;20535;-65
2023/12/03 09:43:21;;;;;;;22.57;9.57;;;1.20;99.90;;;;;;4929381;28;20336;-65
2023/12/03 09:45:48;;;;;;;18.37;9.60;;;1.80;99.90;;;;;;4931692;28;20217;-65
2023/12/03 09:48:20;;;;;;;21.93;8.70;;;1.30;99.90;;;;;;4891228;28;20894;-65
2023/12/03 09:50:50;;;;;;;18.70;8.60;;;1.30;99.90;;;;;;4942722;28;20208;-65
2023/12/03 09:53:21;;;;;;;17.87;8.77;;;1.30;99.90;;;;;;4934725;28;20320;-65
2023/12/03 09:55:49;;;;;;;24.07;9.27;;;1.30;99.90;;;;;;4924211;28;20228;-65
2023/12/03 09:58:16;;;;;;;22.33;10.67;;;1.30;99.90;;;;;;4899883;28;20204;-65
2023/12/03 10:00:43;;;;;;;22.23;10.63;;;1.40;99.90;;;;;;4915757;28;20770;-64
2023/12/03 10:03:10;;;;;;;17.37;9.57;;;1.30;99.90;;;;;;4916878;28;20207;-65
2023/12/03 10:05:37;;;;;;;18.83;10.10;;;1.50;99.90;;;;;;4902593;28;20220;-65
2023/12/03 10:08:06;;;;;;;20.83;10.00;;;1.40;99.90;;;;;;4931366;28;20787;-65
2023/12/03 10:10:39;;;;;;;20.10;10.10;;;1.40;99.90;;;;;;4925930;28;20224;-65
2023/12/03 10:13:09;;;;;;;16.40;8.97;;;2.70;99.90;;;;;;4922936;28;20239;-65
2023/12/03 10:15:36;;;;;;;18.10;9.37;;;1.40;99.90;;;;;;4899558;28;20224;-65
2023/12/03 10:18:03;;;;;;;14.30;8.37;;;1.40;99.90;;;;;;4923333;28;20208;-65
2023/12/03 10:20:30;;;;;;;15.00;7.77;;;1.40;99.90;;;;;;4886965;28;21082;-65
2023/12/03 10:22:58;;;;;;;14.20;6.90;;;1.60;99.90;;;;;;4930857;28;20228;-65
2023/12/03 10:25:31;;;;;;;14.30;7.43;;;1.50;99.90;;;;;;4926241;28;23866;-65
2023/12/03 10:27:59;;;;;;;13.90;6.87;;;1.50;99.90;;;;;;4924925;28;20836;-65
2023/12/03 10:30:27;;;;;;;13.10;6.47;;;1.60;99.90;;;;;;4921802;28;20781;-65
2023/12/03 10:32:54;;;;;;;12.43;6.57;;;1.50;99.90;;;;;;4912713;28;20327;-65
2023/12/03 10:35:21;;;;;;;9.67;6.50;;;1.50;99.90;;;;;;4893328;28;20460;-65
2023/12/03 10:37:48;;;;;;;11.03;6.73;;;1.60;99.90;;;;;;4921671;28;20223;-65
2023/12/03 10:40:15;;;;;;;12.07;6.57;;;1.60;99.90;;;;;;4936388;28;20207;-65
2023/12/03 10:42:45;;;;;;;9.23;5.90;;;1.60;99.90;;;;;;4908131;28;20207;-66
2023/12/03 10:45:13;;;;;;;11.87;5.73;;;1.60;99.90;;;;;;4918639;28;21198;-66
2023/12/03 10:47:41;;;;;;;9.33;5.20;;;1.60;99.90;;;;;;4918658;28;20204;-66
2023/12/03 10:50:11;;;;;;;11.20;5.93;;;1.70;99.90;;;;;;4927255;28;20297;-66
2023/12/03 10:52:39;;;;;;;9.10;5.43;;;1.70;99.90;;;;;;4895450;28;25955;-65
2023/12/03 10:55:08;;;;;;;13.43;7.20;;;1.70;99.90;;;;;;4931784;28;20317;-65
2023/12/03 10:57:48;;;;;;;9.60;5.60;;;1.80;99.90;;;;;;4923583;28;20211;-66
2023/12/03 11:00:20;;;;;;;9.93;5.67;;;1.70;99.90;;;;;;4898600;28;20666;-66
2023/12/03 11:02:52;;;;;;;12.53;6.47;;;1.70;99.90;;;;;;4919636;28;20251;-66
2023/12/03 11:05:27;;;;;;;10.63;6.07;;;0.90;99.90;;;;;;4894036;28;21036;-66
2023/12/03 11:07:55;;;;;;;10.73;6.00;;;2.20;99.90;;;;;;4888786;28;20233;-66
2023/12/03 11:10:22;;;;;;;13.30;5.87;;;2.20;99.90;;;;;;4920908;28;20256;-65
2023/12/03 11:12:51;;;;;;;15.17;5.73;;;2.00;99.90;;;;;;4906142;28;20439;-65
2023/12/03 11:15:19;;;;;;;10.83;5.30;;;2.00;99.90;;;;;;4912717;28;20208;-65
2023/12/03 11:17:47;;;;;;;13.53;6.27;;;2.00;99.90;;;;;;4902714;28;20216;-65
2023/12/03 11:20:21;;;;;;;13.07;6.60;;;1.80;99.90;;;;;;4936401;28;20210;-66
2023/12/03 11:23:05;;;;;;;13.27;6.43;;;2.00;99.90;;;;;;4869084;28;20234;-66
2023/12/03 11:25:35;;;;;;;12.23;6.53;;;1.80;99.90;;;;;;4937465;28;20282;-65
2023/12/03 11:28:03;;;;;;;12.53;6.00;;;2.00;99.90;;;;;;4908704;28;21915;-66
2023/12/03 11:30:38;;;;;;;17.73;7.70;;;3.00;99.90;;;;;;4908605;28;20744;-65
2023/12/03 11:33:08;;;;;;;13.37;6.97;;;2.40;99.90;;;;;;4894670;28;20785;-66
2023/12/03 11:35:35;;;;;;;14.13;7.10;;;2.30;99.90;;;;;;4909017;28;20837;-66
2023/12/03 11:38:03;;;;;;;14.87;7.80;;;2.10;99.90;;;;;;4908644;28;20200;-66
2023/12/03 11:40:35;;;;;;;13.37;7.13;;;2.10;99.90;;;;;;4888482;28;20322;-66
2023/12/03 11:43:06;;;;;;;16.07;6.87;;;2.00;99.90;;;;;;4915688;28;22038;-66
2023/12/03 11:45:33;;;;;;;16.47;7.83;;;2.00;99.90;;;;;;4906618;28;20341;-65
2023/12/03 11:48:08;;;;;;;15.70;7.80;;;2.00;99.90;;;;;;4869186;28;20399;-66
2023/12/03 11:50:36;;;;;;;12.00;7.67;;;1.90;99.90;;;;;;4932394;28;20230;-66
2023/12/03 11:53:04;;;;;;;15.77;6.93;;;1.90;99.90;;;;;;4897871;28;20226;-66
2023/12/03 11:55:34;;;;;;;12.80;7.40;;;1.90;99.90;;;;;;4897047;28;20367;-66
2023/12/03 11:58:04;;;;;;;13.03;6.87;;;2.00;99.90;;;;;;4934492;28;20204;-65
2023/12/03 12:00:31;;;;;;;13.23;6.57;;;2.40;99.90;;;;;;4916595;28;20300;-66
2023/12/03 12:02:59;;;;;;;18.37;7.37;;;1.90;99.90;;;;;;4911012;28;20208;-66
2023/12/03 12:05:26;;;;;;;20.97;9.03;;;2.00;99.90;;;;;;4918059;28;20209;-66
2023/12/03 12:07:58;;;;;;;15.57;8.50;;;1.90;99.90;;;;;;4924821;28;20798;-66
2023/12/03 12:10:24;;;;;;;19.27;8.83;;;1.90;99.90;;;;;;4894895;28;20327;-66
2023/12/03 12:12:52;;;;;;;16.80;8.63;;;1.90;99.90;;;;;;4911968;28;21004;-66
2023/12/03 12:15:21;;;;;;;17.10;8.03;;;1.90;99.90;;;;;;4916813;28;20533;-67
2023/12/03 12:17:48;;;;;;;16.77;8.53;;;1.80;99.90;;;;;;4908043;28;20242;-66
2023/12/03 12:20:23;;;;;;;13.13;7.77;;;2.30;99.90;;;;;;4888358;28;20773;-66
2023/12/03 12:22:51;;;;;;;14.40;7.80;;;1.90;99.90;;;;;;4917828;28;22322;-66
2023/12/03 12:25:18;;;;;;;14.03;7.93;;;1.80;99.90;;;;;;4931300;28;20230;-66
2023/12/03 12:27:45;;;;;;;19.90;8.63;;;1.10;99.90;;;;;;4879199;28;20214;-67
2023/12/03 12:30:15;;;;;;;16.67;7.37;;;1.80;99.90;;;;;;4906993;28;20608;-67
2023/12/03 12:32:43;;;;;;;11.00;6.47;;;1.90;99.90;;;;;;4921239;28;20212;-66
2023/12/03 12:35:10;;;;;;;20.23;6.93;;;1.90;99.90;;;;;;4908615;28;20219;-67
2023/12/03 12:37:38;;;;;;;12.67;7.37;;;1.90;99.90;;;;;;4915929;28;20325;-66
2023/12/03 12:40:09;;;;;;;12.73;7.17;;;1.80;99.90;;;;;;4937442;28;20210;-67
2023/12/03 12:42:38;;;;;;;16.57;6.33;;;1.90;99.90;;;;;;4886932;28;20215;-67